sensor_id;sensor_type;location;lat;lon;timestamp;temperature;humidity
16182;DHT22;8197;51.664;7.114;2024-02-15T00:02:01;12.20;100.00
16182;DHT22;8197;51.664;7.114;2024-02-15T00:07:04;12.20;100.00
16182;DHT22;8197;51.664;7.114;2024-02-15T00:12:09;12.20;100.00
16182;DHT22;8197;51.664;7.114;2024-02-15T00:17:12;12.20;100.00
16182;DHT22;8197;51.664;7.114;2024-02-15T00:22:15;12.20;100.00
16182;DHT22;8197;51.664;7.114;2024-02-15T00:27:19;12.20;100.00
16182;DHT22;8197;51.664;7.114;2024-02-15T00:32:22;12.10;100.00
16182;DHT22;8197;51.664;7.114;2024-02-15T00:37:26;12.20;100.00
16182;DHT22;8197;51.664;7.114;2024-02-15T00:42:30;12.20;100.00
16182;DHT22;8197;51.664;7.114;2024-02-15T00:47:34;12.20;100.00
16182;DHT22;8197;51.664;7.114;2024-02-15T00:52:37;12.10;100.00
16182;DHT22;8197;51.664;7.114;2024-02-15T00:57:41;12.20;100.00
16182;DHT22;8197;51.664;7.114;2024-02-15T01:02:44;12.20;100.00
16182;DHT22;8197;51.664;7.114;2024-02-15T01:07:47;12.10;100.00
16182;DHT22;8197;51.664;7.114;2024-02-15T01:12:52;12.20;100.00
16182;DHT22;8197;51.664;7.114;2024-02-15T01:17:55;12.10;100.00
16182;DHT22;8197;51.664;7.114;2024-02-15T01:22:58;12.20;100.00
16182;DHT22;8197;51.664;7.114;2024-02-15T01:28:03;12.20;100.00
16182;DHT22;8197;51.664;7.114;2024-02-15T01:33:06;12.20;100.00
16182;DHT22;8197;51.664;7.114;2024-02-15T01:38:09;12.20;100.00
16182;DHT22;8197;51.664;7.114;2024-02-15T01:43:14;12.20;100.00
16182;DHT22;8197;51.664;7.114;2024-02-15T01:48:17;12.20;100.00
16182;DHT22;8197;51.664;7.114;2024-02-15T01:53:20;12.20;100.00
16182;DHT22;8197;51.664;7.114;2024-02-15T01:58:27;12.20;100.00
16182;DHT22;8197;51.664;7.114;2024-02-15T02:03:34;12.20;100.00
16182;DHT22;8197;51.664;7.114;2024-02-15T02:08:38;12.20;100.00
16182;DHT22;8197;51.664;7.114;2024-02-15T02:13:42;12.20;100.00
16182;DHT22;8197;51.664;7.114;2024-02-15T02:18:45;12.10;100.00
16182;DHT22;8197;51.664;7.114;2024-02-15T02:23:52;12.10;100.00
16182;DHT22;8197;51.664;7.114;2024-02-15T02:28:56;12.10;100.00
16182;DHT22;8197;51.664;7.114;2024-02-15T02:34:01;12.10;100.00
16182;DHT22;8197;51.664;7.114;2024-02-15T02:39:04;12.10;100.00
16182;DHT22;8197;51.664;7.114;2024-02-15T02:44:10;12.10;100.00
16182;DHT22;8197;51.664;7.114;2024-02-15T02:49:13;12.10;100.00
16182;DHT22;8197;51.664;7.114;2024-02-15T02:54:16;12.10;100.00
16182;DHT22;8197;51.664;7.114;2024-02-15T02:59:20;12.10;100.00
16182;DHT22;8197;51.664;7.114;2024-02-15T03:04:23;12.10;100.00
16182;DHT22;8197;51.664;7.114;2024-02-15T03:09:26;12.10;100.00
16182;DHT22;8197;51.664;7.114;2024-02-15T03:14:32;12.10;100.00
16182;DHT22;8197;51.664;7.114;2024-02-15T03:19:37;12.10;100.00
16182;DHT22;8197;51.664;7.114;2024-02-15T03:24:40;12.10;100.00
16182;DHT22;8197;51.664;7.114;2024-02-15T03:29:44;12.10;100.00
16182;DHT22;8197;51.664;7.114;2024-02-15T03:34:48;12.10;100.00
16182;DHT22;8197;51.664;7.114;2024-02-15T03:39:51;12.20;100.00
16182;DHT22;8197;51.664;7.114;2024-02-15T03:44:55;12.20;100.00
16182;DHT22;8197;51.664;7.114;2024-02-15T03:49:58;12.20;100.00
16182;DHT22;8197;51.664;7.114;2024-02-15T03:55:01;12.20;100.00
16182;DHT22;8197;51.664;7.114;2024-02-15T04:00:09;12.10;100.00
16182;DHT22;8197;51.664;7.114;2024-02-15T04:05:14;12.20;100.00
16182;DHT22;8197;51.664;7.114;2024-02-15T04:10:17;12.20;100.00
16182;DHT22;8197;51.664;7.114;2024-02-15T04:15:21;12.20;100.00
16182;DHT22;8197;51.664;7.114;2024-02-15T04:20:24;12.20;100.00
16182;DHT22;8197;51.664;7.114;2024-02-15T04:25:28;12.20;100.00
16182;DHT22;8197;51.664;7.114;2024-02-15T04:30:34;12.10;100.00
16182;DHT22;8197;51.664;7.114;2024-02-15T04:35:39;12.20;100.00
16182;DHT22;8197;51.664;7.114;2024-02-15T04:40:42;12.20;100.00
16182;DHT22;8197;51.664;7.114;2024-02-15T04:45:47;12.20;100.00
16182;DHT22;8197;51.664;7.114;2024-02-15T04:50:50;12.20;100.00
16182;DHT22;8197;51.664;7.114;2024-02-15T04:55:53;12.30;100.00
16182;DHT22;8197;51.664;7.114;2024-02-15T05:00:58;12.30;100.00
16182;DHT22;8197;51.664;7.114;2024-02-15T05:06:01;12.30;100.00
16182;DHT22;8197;51.664;7.114;2024-02-15T05:11:07;12.20;100.00
16182;DHT22;8197;51.664;7.114;2024-02-15T05:16:16;12.30;100.00
16182;DHT22;8197;51.664;7.114;2024-02-15T05:21:19;12.30;100.00
16182;DHT22;8197;51.664;7.114;2024-02-15T05:26:22;12.30;100.00
16182;DHT22;8197;51.664;7.114;2024-02-15T05:31:26;12.30;100.00
16182;DHT22;8197;51.664;7.114;2024-02-15T05:36:29;12.30;100.00
16182;DHT22;8197;51.664;7.114;2024-02-15T05:41:32;12.30;100.00
16182;DHT22;8197;51.664;7.114;2024-02-15T05:46:37;12.40;100.00
16182;DHT22;8197;51.664;7.114;2024-02-15T05:51:41;12.40;100.00
16182;DHT22;8197;51.664;7.114;2024-02-15T05:56:46;12.40;100.00
16182;DHT22;8197;51.664;7.114;2024-02-15T06:01:54;12.30;100.00
16182;DHT22;8197;51.664;7.114;2024-02-15T06:06:57;12.30;100.00
16182;DHT22;8197;51.664;7.114;2024-02-15T06:12:03;12.30;100.00
16182;DHT22;8197;51.664;7.114;2024-02-15T06:17:08;12.30;100.00
16182;DHT22;8197;51.664;7.114;2024-02-15T06:22:12;12.30;100.00
16182;DHT22;8197;51.664;7.114;2024-02-15T06:27:15;12.30;100.00
16182;DHT22;8197;51.664;7.114;2024-02-15T06:32:20;12.40;100.00
16182;DHT22;8197;51.664;7.114;2024-02-15T06:37:41;12.40;100.00
16182;DHT22;8197;51.664;7.114;2024-02-15T06:43:01;12.40;100.00
16182;DHT22;8197;51.664;7.114;2024-02-15T06:48:09;12.40;100.00
16182;DHT22;8197;51.664;7.114;2024-02-15T06:53:12;12.40;100.00
16182;DHT22;8197;51.664;7.114;2024-02-15T06:58:15;12.40;100.00
16182;DHT22;8197;51.664;7.114;2024-02-15T07:03:19;12.30;100.00
16182;DHT22;8197;51.664;7.114;2024-02-15T07:08:24;12.30;100.00
16182;DHT22;8197;51.664;7.114;2024-02-15T07:13:27;12.30;100.00
16182;DHT22;8197;51.664;7.114;2024-02-15T07:18:31;12.20;100.00
16182;DHT22;8197;51.664;7.114;2024-02-15T07:23:34;12.20;100.00
16182;DHT22;8197;51.664;7.114;2024-02-15T07:28:39;12.20;100.00
16182;DHT22;8197;51.664;7.114;2024-02-15T07:33:43;12.20;100.00
16182;DHT22;8197;51.664;7.114;2024-02-15T07:38:47;12.10;100.00
16182;DHT22;8197;51.664;7.114;2024-02-15T07:43:50;12.10;100.00
16182;DHT22;8197;51.664;7.114;2024-02-15T07:48:57;12.00;100.00
16182;DHT22;8197;51.664;7.114;2024-02-15T07:54:01;12.00;100.00
16182;DHT22;8197;51.664;7.114;2024-02-15T07:59:05;12.00;100.00
16182;DHT22;8197;51.664;7.114;2024-02-15T08:04:10;12.10;100.00
16182;DHT22;8197;51.664;7.114;2024-02-15T08:09:15;12.10;100.00
16182;DHT22;8197;51.664;7.114;2024-02-15T08:14:19;12.10;100.00
16182;DHT22;8197;51.664;7.114;2024-02-15T08:19:24;12.20;100.00
16182;DHT22;8197;51.664;7.114;2024-02-15T08:24:31;12.20;100.00
16182;DHT22;8197;51.664;7.114;2024-02-15T08:29:33;12.20;100.00
16182;DHT22;8197;51.664;7.114;2024-02-15T08:34:38;12.20;100.00
16182;DHT22;8197;51.664;7.114;2024-02-15T08:39:41;12.20;100.00
16182;DHT22;8197;51.664;7.114;2024-02-15T08:44:46;12.20;100.00
16182;DHT22;8197;51.664;7.114;2024-02-15T08:49:50;12.20;100.00
16182;DHT22;8197;51.664;7.114;2024-02-15T08:54:53;12.30;100.00
16182;DHT22;8197;51.664;7.114;2024-02-15T08:59:58;12.30;100.00
16182;DHT22;8197;51.664;7.114;2024-02-15T09:05:03;12.30;100.00
16182;DHT22;8197;51.664;7.114;2024-02-15T09:10:07;12.40;100.00
16182;DHT22;8197;51.664;7.114;2024-02-15T09:15:11;12.30;100.00
16182;DHT22;8197;51.664;7.114;2024-02-15T09:20:16;12.30;100.00
16182;DHT22;8197;51.664;7.114;2024-02-15T09:25:21;12.30;100.00
16182;DHT22;8197;51.664;7.114;2024-02-15T09:30:25;12.30;100.00
16182;DHT22;8197;51.664;7.114;2024-02-15T09:35:31;12.30;100.00
16182;DHT22;8197;51.664;7.114;2024-02-15T09:40:34;12.30;100.00
16182;DHT22;8197;51.664;7.114;2024-02-15T09:45:37;12.40;100.00
16182;DHT22;8197;51.664;7.114;2024-02-15T09:50:42;12.40;100.00
16182;DHT22;8197;51.664;7.114;2024-02-15T09:55:47;12.40;100.00
16182;DHT22;8197;51.664;7.114;2024-02-15T10:00:50;12.40;100.00
16182;DHT22;8197;51.664;7.114;2024-02-15T10:05:54;12.50;100.00
16182;DHT22;8197;51.664;7.114;2024-02-15T10:11:06;12.50;100.00
16182;DHT22;8197;51.664;7.114;2024-02-15T10:16:14;12.50;100.00
16182;DHT22;8197;51.664;7.114;2024-02-15T10:21:26;12.60;100.00
16182;DHT22;8197;51.664;7.114;2024-02-15T10:26:31;12.60;100.00
16182;DHT22;8197;51.664;7.114;2024-02-15T10:31:34;12.70;100.00
16182;DHT22;8197;51.664;7.114;2024-02-15T10:36:39;12.80;100.00
16182;DHT22;8197;51.664;7.114;2024-02-15T10:41:43;12.80;100.00
16182;DHT22;8197;51.664;7.114;2024-02-15T10:46:52;12.80;100.00
16182;DHT22;8197;51.664;7.114;2024-02-15T10:52:01;13.00;100.00
16182;DHT22;8197;51.664;7.114;2024-02-15T10:57:06;13.10;100.00
16182;DHT22;8197;51.664;7.114;2024-02-15T11:02:29;13.20;100.00
16182;DHT22;8197;51.664;7.114;2024-02-15T11:07:34;13.30;100.00
16182;DHT22;8197;51.664;7.114;2024-02-15T11:12:38;13.40;100.00
16182;DHT22;8197;51.664;7.114;2024-02-15T11:17:49;13.40;100.00
16182;DHT22;8197;51.664;7.114;2024-02-15T11:22:59;13.60;100.00
16182;DHT22;8197;51.664;7.114;2024-02-15T11:28:34;13.70;100.00
16182;DHT22;8197;51.664;7.114;2024-02-15T11:33:38;13.70;100.00
16182;DHT22;8197;51.664;7.114;2024-02-15T11:38:43;13.80;100.00
16182;DHT22;8197;51.664;7.114;2024-02-15T11:43:50;13.80;100.00
16182;DHT22;8197;51.664;7.114;2024-02-15T11:48:58;13.90;100.00
16182;DHT22;8197;51.664;7.114;2024-02-15T11:54:05;14.00;100.00
16182;DHT22;8197;51.664;7.114;2024-02-15T11:59:09;14.00;100.00
16182;DHT22;8197;51.664;7.114;2024-02-15T12:04:20;14.10;100.00
16182;DHT22;8197;51.664;7.114;2024-02-15T12:09:42;14.10;100.00
16182;DHT22;8197;51.664;7.114;2024-02-15T12:15:08;14.20;100.00
16182;DHT22;8197;51.664;7.114;2024-02-15T12:20:28;14.30;100.00
16182;DHT22;8197;51.664;7.114;2024-02-15T12:25:35;14.40;100.00
16182;DHT22;8197;51.664;7.114;2024-02-15T12:30:38;14.40;100.00
16182;DHT22;8197;51.664;7.114;2024-02-15T12:35:42;14.50;100.00
16182;DHT22;8197;51.664;7.114;2024-02-15T12:40:46;14.50;100.00
16182;DHT22;8197;51.664;7.114;2024-02-15T12:45:50;14.60;100.00
16182;DHT22;8197;51.664;7.114;2024-02-15T12:50:53;14.80;100.00
16182;DHT22;8197;51.664;7.114;2024-02-15T12:55:58;14.80;100.00
16182;DHT22;8197;51.664;7.114;2024-02-15T13:01:01;14.80;100.00
16182;DHT22;8197;51.664;7.114;2024-02-15T13:06:06;14.90;100.00
16182;DHT22;8197;51.664;7.114;2024-02-15T13:11:13;14.90;100.00
16182;DHT22;8197;51.664;7.114;2024-02-15T13:16:17;15.00;100.00
16182;DHT22;8197;51.664;7.114;2024-02-15T13:21:21;15.00;99.20
16182;DHT22;8197;51.664;7.114;2024-02-15T13:26:27;15.10;100.00
16182;DHT22;8197;51.664;7.114;2024-02-15T13:31:32;15.10;99.00
16182;DHT22;8197;51.664;7.114;2024-02-15T13:36:36;15.20;99.10
16182;DHT22;8197;51.664;7.114;2024-02-15T13:41:40;15.30;99.20
16182;DHT22;8197;51.664;7.114;2024-02-15T13:46:44;15.30;97.60
16182;DHT22;8197;51.664;7.114;2024-02-15T13:51:47;15.30;96.40
16182;DHT22;8197;51.664;7.114;2024-02-15T13:56:51;15.40;95.30
16182;DHT22;8197;51.664;7.114;2024-02-15T14:01:54;15.40;92.90
16182;DHT22;8197;51.664;7.114;2024-02-15T14:06:57;15.50;93.60
16182;DHT22;8197;51.664;7.114;2024-02-15T14:12:01;15.60;92.80
16182;DHT22;8197;51.664;7.114;2024-02-15T14:17:07;15.50;92.10
16182;DHT22;8197;51.664;7.114;2024-02-15T14:22:11;15.60;92.10
16182;DHT22;8197;51.664;7.114;2024-02-15T14:27:19;15.60;89.80
16182;DHT22;8197;51.664;7.114;2024-02-15T14:32:22;15.60;90.50
16182;DHT22;8197;51.664;7.114;2024-02-15T14:37:42;15.50;90.30
16182;DHT22;8197;51.664;7.114;2024-02-15T14:42:49;15.50;90.80
16182;DHT22;8197;51.664;7.114;2024-02-15T14:47:58;15.50;90.90
16182;DHT22;8197;51.664;7.114;2024-02-15T14:53:01;15.40;90.90
16182;DHT22;8197;51.664;7.114;2024-02-15T14:58:06;15.40;89.40
16182;DHT22;8197;51.664;7.114;2024-02-15T15:03:14;15.40;89.60
16182;DHT22;8197;51.664;7.114;2024-02-15T15:08:19;15.40;88.90
16182;DHT22;8197;51.664;7.114;2024-02-15T15:17:01;15.60;87.70
16182;DHT22;8197;51.664;7.114;2024-02-15T15:22:04;15.70;86.80
16182;DHT22;8197;51.664;7.114;2024-02-15T15:27:08;15.90;87.50
16182;DHT22;8197;51.664;7.114;2024-02-15T15:32:15;15.80;85.20
16182;DHT22;8197;51.664;7.114;2024-02-15T15:37:18;15.90;86.80
16182;DHT22;8197;51.664;7.114;2024-02-15T15:42:24;15.90;86.00
16182;DHT22;8197;51.664;7.114;2024-02-15T15:47:31;15.80;84.70
16182;DHT22;8197;51.664;7.114;2024-02-15T15:52:34;15.80;85.30
16182;DHT22;8197;51.664;7.114;2024-02-15T15:57:38;15.80;83.10
16182;DHT22;8197;51.664;7.114;2024-02-15T16:02:43;15.70;85.20
16182;DHT22;8197;51.664;7.114;2024-02-15T16:07:47;15.70;85.70
16182;DHT22;8197;51.664;7.114;2024-02-15T16:12:51;15.70;84.30
16182;DHT22;8197;51.664;7.114;2024-02-15T16:17:56;15.70;85.70
16182;DHT22;8197;51.664;7.114;2024-02-15T16:22:59;15.60;85.60
16182;DHT22;8197;51.664;7.114;2024-02-15T16:28:03;15.60;85.10
16182;DHT22;8197;51.664;7.114;2024-02-15T16:33:09;15.50;87.40
16182;DHT22;8197;51.664;7.114;2024-02-15T16:38:12;15.40;87.00
16182;DHT22;8197;51.664;7.114;2024-02-15T16:43:17;15.30;87.60
16182;DHT22;8197;51.664;7.114;2024-02-15T16:48:23;15.20;87.40
16182;DHT22;8197;51.664;7.114;2024-02-15T16:53:26;15.20;88.70
16182;DHT22;8197;51.664;7.114;2024-02-15T16:58:29;15.10;88.70
16182;DHT22;8197;51.664;7.114;2024-02-15T17:03:34;15.10;87.50
16182;DHT22;8197;51.664;7.114;2024-02-15T17:08:37;15.10;87.70
16182;DHT22;8197;51.664;7.114;2024-02-15T17:13:42;15.00;88.20
16182;DHT22;8197;51.664;7.114;2024-02-15T17:18:48;15.00;89.00
16182;DHT22;8197;51.664;7.114;2024-02-15T17:23:52;14.90;90.30
16182;DHT22;8197;51.664;7.114;2024-02-15T17:28:57;14.80;88.90
16182;DHT22;8197;51.664;7.114;2024-02-15T17:34:09;14.80;88.70
16182;DHT22;8197;51.664;7.114;2024-02-15T17:39:13;14.70;89.50
16182;DHT22;8197;51.664;7.114;2024-02-15T17:44:18;14.70;87.90
16182;DHT22;8197;51.664;7.114;2024-02-15T17:49:22;14.60;88.50
16182;DHT22;8197;51.664;7.114;2024-02-15T17:54:25;14.60;88.60
16182;DHT22;8197;51.664;7.114;2024-02-15T17:59:28;14.60;88.30
16182;DHT22;8197;51.664;7.114;2024-02-15T18:04:38;14.60;87.30
16182;DHT22;8197;51.664;7.114;2024-02-15T18:09:41;14.50;86.10
16182;DHT22;8197;51.664;7.114;2024-02-15T18:14:44;14.60;86.40
16182;DHT22;8197;51.664;7.114;2024-02-15T18:19:48;14.50;86.40
16182;DHT22;8197;51.664;7.114;2024-02-15T18:24:52;14.40;86.70
16182;DHT22;8197;51.664;7.114;2024-02-15T18:29:56;14.40;85.50
16182;DHT22;8197;51.664;7.114;2024-02-15T18:35:01;14.30;85.00
16182;DHT22;8197;51.664;7.114;2024-02-15T18:40:09;14.40;84.10
16182;DHT22;8197;51.664;7.114;2024-02-15T18:45:25;14.30;85.10
16182;DHT22;8197;51.664;7.114;2024-02-15T18:50:32;14.20;86.20
16182;DHT22;8197;51.664;7.114;2024-02-15T18:55:37;14.20;86.20
16182;DHT22;8197;51.664;7.114;2024-02-15T19:00:40;14.20;84.10
16182;DHT22;8197;51.664;7.114;2024-02-15T19:05:59;14.20;85.00
16182;DHT22;8197;51.664;7.114;2024-02-15T19:11:03;14.20;85.40
16182;DHT22;8197;51.664;7.114;2024-02-15T19:16:06;14.10;84.40
16182;DHT22;8197;51.664;7.114;2024-02-15T19:21:11;14.10;85.10
16182;DHT22;8197;51.664;7.114;2024-02-15T19:26:14;14.10;84.20
16182;DHT22;8197;51.664;7.114;2024-02-15T19:31:17;14.00;85.00
16182;DHT22;8197;51.664;7.114;2024-02-15T19:36:21;14.00;84.50
16182;DHT22;8197;51.664;7.114;2024-02-15T19:41:26;14.00;86.20
16182;DHT22;8197;51.664;7.114;2024-02-15T19:46:30;14.00;85.30
16182;DHT22;8197;51.664;7.114;2024-02-15T19:51:34;13.90;85.40
16182;DHT22;8197;51.664;7.114;2024-02-15T19:56:37;13.80;84.90
16182;DHT22;8197;51.664;7.114;2024-02-15T20:01:40;13.80;85.50
16182;DHT22;8197;51.664;7.114;2024-02-15T20:06:46;13.70;88.50
16182;DHT22;8197;51.664;7.114;2024-02-15T20:11:50;13.70;87.00
16182;DHT22;8197;51.664;7.114;2024-02-15T20:16:52;13.60;88.80
16182;DHT22;8197;51.664;7.114;2024-02-15T20:21:59;13.60;88.50
16182;DHT22;8197;51.664;7.114;2024-02-15T20:27:03;13.40;88.80
16182;DHT22;8197;51.664;7.114;2024-02-15T20:32:06;13.40;87.90
16182;DHT22;8197;51.664;7.114;2024-02-15T20:37:10;13.30;89.30
16182;DHT22;8197;51.664;7.114;2024-02-15T20:42:13;13.30;88.70
16182;DHT22;8197;51.664;7.114;2024-02-15T20:47:17;13.30;87.50
16182;DHT22;8197;51.664;7.114;2024-02-15T20:52:22;13.30;87.40
16182;DHT22;8197;51.664;7.114;2024-02-15T20:57:25;13.20;88.90
16182;DHT22;8197;51.664;7.114;2024-02-15T21:02:28;13.20;88.60
16182;DHT22;8197;51.664;7.114;2024-02-15T21:07:34;13.20;87.30
16182;DHT22;8197;51.664;7.114;2024-02-15T21:12:37;13.10;87.30
16182;DHT22;8197;51.664;7.114;2024-02-15T21:17:41;13.10;88.30
16182;DHT22;8197;51.664;7.114;2024-02-15T21:22:47;13.10;87.70
16182;DHT22;8197;51.664;7.114;2024-02-15T21:27:51;13.00;87.20
16182;DHT22;8197;51.664;7.114;2024-02-15T21:32:54;13.00;88.70
16182;DHT22;8197;51.664;7.114;2024-02-15T21:37:59;13.00;86.60
16182;DHT22;8197;51.664;7.114;2024-02-15T21:43:02;13.00;87.50
16182;DHT22;8197;51.664;7.114;2024-02-15T21:48:06;12.90;87.90
16182;DHT22;8197;51.664;7.114;2024-02-15T21:53:11;12.90;87.50
16182;DHT22;8197;51.664;7.114;2024-02-15T21:58:14;12.90;87.80
16182;DHT22;8197;51.664;7.114;2024-02-15T22:03:17;12.90;86.80
16182;DHT22;8197;51.664;7.114;2024-02-15T22:08:22;12.90;86.50
16182;DHT22;8197;51.664;7.114;2024-02-15T22:13:24;12.90;85.80
16182;DHT22;8197;51.664;7.114;2024-02-15T22:18:27;12.90;86.20
16182;DHT22;8197;51.664;7.114;2024-02-15T22:23:32;12.80;86.70
16182;DHT22;8197;51.664;7.114;2024-02-15T22:28:35;12.80;85.80
16182;DHT22;8197;51.664;7.114;2024-02-15T22:33:37;12.80;86.70
16182;DHT22;8197;51.664;7.114;2024-02-15T22:38:43;12.80;86.70
16182;DHT22;8197;51.664;7.114;2024-02-15T22:43:46;12.80;86.40
16182;DHT22;8197;51.664;7.114;2024-02-15T22:48:49;12.80;85.80
16182;DHT22;8197;51.664;7.114;2024-02-15T22:53:54;12.80;86.50
16182;DHT22;8197;51.664;7.114;2024-02-15T22:58:57;12.70;88.20
16182;DHT22;8197;51.664;7.114;2024-02-15T23:04:00;12.80;86.00
16182;DHT22;8197;51.664;7.114;2024-02-15T23:09:05;12.80;84.80
16182;DHT22;8197;51.664;7.114;2024-02-15T23:14:08;12.80;85.60
16182;DHT22;8197;51.664;7.114;2024-02-15T23:19:12;12.80;86.30
16182;DHT22;8197;51.664;7.114;2024-02-15T23:24:17;12.70;86.50
16182;DHT22;8197;51.664;7.114;2024-02-15T23:29:20;12.70;86.20
16182;DHT22;8197;51.664;7.114;2024-02-15T23:34:23;12.70;85.60
16182;DHT22;8197;51.664;7.114;2024-02-15T23:39:28;12.70;86.50
16182;DHT22;8197;51.664;7.114;2024-02-15T23:44:48;12.70;86.80
16182;DHT22;8197;51.664;7.114;2024-02-15T23:49:52;12.70;86.20
16182;DHT22;8197;51.664;7.114;2024-02-15T23:54:56;12.70;87.00
16182;DHT22;8197;51.664;7.114;2024-02-15T23:59:59;12.70;85.90
